sensor_id;sensor_type;location;lat;lon;timestamp;temperature;humidity
15844;DHT22;50807;52.436;13.346;2023-03-12T00:00:23;5.20;87.40
15844;DHT22;50807;52.436;13.346;2023-03-12T00:00:54;5.20;87.40
15844;DHT22;50807;52.436;13.346;2023-03-12T00:01:27;5.20;87.40
15844;DHT22;50807;52.436;13.346;2023-03-12T00:02:00;5.20;87.50
15844;DHT22;50807;52.436;13.346;2023-03-12T00:02:32;5.20;87.40
15844;DHT22;50807;52.436;13.346;2023-03-12T00:03:02;5.20;87.30
15844;DHT22;50807;52.436;13.346;2023-03-12T00:03:33;5.20;87.40
15844;DHT22;50807;52.436;13.346;2023-03-12T00:04:05;5.20;87.40
15844;DHT22;50807;52.436;13.346;2023-03-12T00:04:36;5.20;87.40
15844;DHT22;50807;52.436;13.346;2023-03-12T00:05:07;5.20;87.40
15844;DHT22;50807;52.436;13.346;2023-03-12T00:05:42;5.20;87.50
15844;DHT22;50807;52.436;13.346;2023-03-12T00:06:17;5.20;87.50
15844;DHT22;50807;52.436;13.346;2023-03-12T00:06:50;5.20;87.50
15844;DHT22;50807;52.436;13.346;2023-03-12T00:07:20;5.20;87.40
15844;DHT22;50807;52.436;13.346;2023-03-12T00:07:51;5.20;87.40
15844;DHT22;50807;52.436;13.346;2023-03-12T00:08:29;5.20;87.50
15844;DHT22;50807;52.436;13.346;2023-03-12T00:08:59;5.20;87.40
15844;DHT22;50807;52.436;13.346;2023-03-12T00:09:34;5.20;87.40
15844;DHT22;50807;52.436;13.346;2023-03-12T00:10:06;5.20;87.50
15844;DHT22;50807;52.436;13.346;2023-03-12T00:10:39;5.20;87.40
15844;DHT22;50807;52.436;13.346;2023-03-12T00:11:14;5.20;87.40
15844;DHT22;50807;52.436;13.346;2023-03-12T00:11:45;5.20;87.40
15844;DHT22;50807;52.436;13.346;2023-03-12T00:12:16;5.20;87.30
15844;DHT22;50807;52.436;13.346;2023-03-12T00:12:48;5.20;87.40
15844;DHT22;50807;52.436;13.346;2023-03-12T00:13:18;5.20;87.40
15844;DHT22;50807;52.436;13.346;2023-03-12T00:13:50;5.20;87.30
15844;DHT22;50807;52.436;13.346;2023-03-12T00:14:22;5.20;87.40
15844;DHT22;50807;52.436;13.346;2023-03-12T00:14:53;5.20;87.30
15844;DHT22;50807;52.436;13.346;2023-03-12T00:15:24;5.20;87.30
15844;DHT22;50807;52.436;13.346;2023-03-12T00:15:56;5.20;87.40
15844;DHT22;50807;52.436;13.346;2023-03-12T00:16:27;5.20;87.40
15844;DHT22;50807;52.436;13.346;2023-03-12T00:16:58;5.20;87.40
15844;DHT22;50807;52.436;13.346;2023-03-12T00:17:29;5.20;87.40
15844;DHT22;50807;52.436;13.346;2023-03-12T00:18:00;5.20;87.40
15844;DHT22;50807;52.436;13.346;2023-03-12T00:18:31;5.20;87.40
15844;DHT22;50807;52.436;13.346;2023-03-12T00:19:02;5.20;87.40
15844;DHT22;50807;52.436;13.346;2023-03-12T00:19:33;5.20;87.40
15844;DHT22;50807;52.436;13.346;2023-03-12T00:20:05;5.20;87.50
15844;DHT22;50807;52.436;13.346;2023-03-12T00:20:37;5.20;87.50
15844;DHT22;50807;52.436;13.346;2023-03-12T00:21:09;5.20;87.50
15844;DHT22;50807;52.436;13.346;2023-03-12T00:21:40;5.20;87.50
15844;DHT22;50807;52.436;13.346;2023-03-12T00:22:11;5.20;87.50
15844;DHT22;50807;52.436;13.346;2023-03-12T00:22:42;5.20;87.50
15844;DHT22;50807;52.436;13.346;2023-03-12T00:23:13;5.20;87.50
15844;DHT22;50807;52.436;13.346;2023-03-12T00:23:46;5.20;87.50
15844;DHT22;50807;52.436;13.346;2023-03-12T00:24:16;5.20;87.50
15844;DHT22;50807;52.436;13.346;2023-03-12T00:24:52;5.20;87.50
15844;DHT22;50807;52.436;13.346;2023-03-12T00:25:25;5.20;87.50
15844;DHT22;50807;52.436;13.346;2023-03-12T00:25:59;5.20;87.50
15844;DHT22;50807;52.436;13.346;2023-03-12T00:26:30;5.20;87.50
15844;DHT22;50807;52.436;13.346;2023-03-12T00:27:02;5.20;87.40
15844;DHT22;50807;52.436;13.346;2023-03-12T00:27:33;5.20;87.40
15844;DHT22;50807;52.436;13.346;2023-03-12T00:28:04;5.20;87.40
15844;DHT22;50807;52.436;13.346;2023-03-12T00:28:36;5.20;87.40
15844;DHT22;50807;52.436;13.346;2023-03-12T00:29:08;5.20;87.50
15844;DHT22;50807;52.436;13.346;2023-03-12T00:29:38;5.20;87.50
15844;DHT22;50807;52.436;13.346;2023-03-12T00:30:11;5.20;87.50
15844;DHT22;50807;52.436;13.346;2023-03-12T00:30:42;5.20;87.50
15844;DHT22;50807;52.436;13.346;2023-03-12T00:31:14;5.20;87.50
15844;DHT22;50807;52.436;13.346;2023-03-12T00:31:47;5.10;87.40
15844;DHT22;50807;52.436;13.346;2023-03-12T00:32:20;5.20;87.50
15844;DHT22;50807;52.436;13.346;2023-03-12T00:32:51;5.20;87.50
15844;DHT22;50807;52.436;13.346;2023-03-12T00:33:22;5.20;87.50
15844;DHT22;50807;52.436;13.346;2023-03-12T00:33:54;5.20;87.50
15844;DHT22;50807;52.436;13.346;2023-03-12T00:34:25;5.20;87.50
15844;DHT22;50807;52.436;13.346;2023-03-12T00:34:56;5.20;87.50
15844;DHT22;50807;52.436;13.346;2023-03-12T00:35:28;5.20;87.40
15844;DHT22;50807;52.436;13.346;2023-03-12T00:35:59;5.20;87.50
15844;DHT22;50807;52.436;13.346;2023-03-12T00:36:31;5.10;87.40
15844;DHT22;50807;52.436;13.346;2023-03-12T00:37:03;5.10;87.40
15844;DHT22;50807;52.436;13.346;2023-03-12T00:37:35;5.20;87.50
15844;DHT22;50807;52.436;13.346;2023-03-12T00:38:06;5.20;87.50
15844;DHT22;50807;52.436;13.346;2023-03-12T00:38:37;5.20;87.40
15844;DHT22;50807;52.436;13.346;2023-03-12T00:39:09;5.20;87.40
15844;DHT22;50807;52.436;13.346;2023-03-12T00:39:40;5.20;87.40
15844;DHT22;50807;52.436;13.346;2023-03-12T00:40:12;5.20;87.50
15844;DHT22;50807;52.436;13.346;2023-03-12T00:40:43;5.20;87.50
15844;DHT22;50807;52.436;13.346;2023-03-12T00:41:14;5.10;87.40
15844;DHT22;50807;52.436;13.346;2023-03-12T00:41:45;5.10;87.40
15844;DHT22;50807;52.436;13.346;2023-03-12T00:42:16;5.10;87.30
15844;DHT22;50807;52.436;13.346;2023-03-12T00:42:48;5.20;87.50
15844;DHT22;50807;52.436;13.346;2023-03-12T00:43:20;5.10;87.30
15844;DHT22;50807;52.436;13.346;2023-03-12T00:43:51;5.20;87.40
15844;DHT22;50807;52.436;13.346;2023-03-12T00:44:22;5.10;87.40
15844;DHT22;50807;52.436;13.346;2023-03-12T00:44:53;5.20;87.40
15844;DHT22;50807;52.436;13.346;2023-03-12T00:45:24;5.20;87.40
15844;DHT22;50807;52.436;13.346;2023-03-12T00:45:55;5.20;87.40
15844;DHT22;50807;52.436;13.346;2023-03-12T00:46:26;5.10;87.30
15844;DHT22;50807;52.436;13.346;2023-03-12T00:46:57;5.10;87.40
15844;DHT22;50807;52.436;13.346;2023-03-12T00:47:28;5.10;87.30
15844;DHT22;50807;52.436;13.346;2023-03-12T00:48:00;5.20;87.40
15844;DHT22;50807;52.436;13.346;2023-03-12T00:48:31;5.10;87.20
15844;DHT22;50807;52.436;13.346;2023-03-12T00:49:02;5.10;87.30
15844;DHT22;50807;52.436;13.346;2023-03-12T00:49:34;5.10;87.40
15844;DHT22;50807;52.436;13.346;2023-03-12T00:50:05;5.10;87.30
15844;DHT22;50807;52.436;13.346;2023-03-12T00:50:37;5.10;87.40
15844;DHT22;50807;52.436;13.346;2023-03-12T00:51:09;5.20;87.30
15844;DHT22;50807;52.436;13.346;2023-03-12T00:51:41;5.20;87.30
15844;DHT22;50807;52.436;13.346;2023-03-12T00:52:12;5.20;87.30
15844;DHT22;50807;52.436;13.346;2023-03-12T00:52:44;5.20;87.30
15844;DHT22;50807;52.436;13.346;2023-03-12T00:53:15;5.10;87.20
15844;DHT22;50807;52.436;13.346;2023-03-12T00:53:46;5.10;87.20
15844;DHT22;50807;52.436;13.346;2023-03-12T00:54:17;5.20;87.30
15844;DHT22;50807;52.436;13.346;2023-03-12T00:54:48;5.20;87.30
15844;DHT22;50807;52.436;13.346;2023-03-12T00:55:19;5.10;87.20
15844;DHT22;50807;52.436;13.346;2023-03-12T00:55:51;5.10;87.30
15844;DHT22;50807;52.436;13.346;2023-03-12T00:56:22;5.10;87.20
15844;DHT22;50807;52.436;13.346;2023-03-12T00:56:54;5.10;87.30
15844;DHT22;50807;52.436;13.346;2023-03-12T00:57:25;5.20;87.30
15844;DHT22;50807;52.436;13.346;2023-03-12T00:57:55;5.10;87.30
15844;DHT22;50807;52.436;13.346;2023-03-12T00:58:27;5.10;87.30
15844;DHT22;50807;52.436;13.346;2023-03-12T00:58:58;5.10;87.30
15844;DHT22;50807;52.436;13.346;2023-03-12T00:59:28;5.10;87.30
15844;DHT22;50807;52.436;13.346;2023-03-12T01:00:01;5.20;87.40
15844;DHT22;50807;52.436;13.346;2023-03-12T01:00:31;5.20;87.30
15844;DHT22;50807;52.436;13.346;2023-03-12T01:01:03;5.10;87.30
15844;DHT22;50807;52.436;13.346;2023-03-12T01:01:34;5.10;87.30
15844;DHT22;50807;52.436;13.346;2023-03-12T01:02:05;5.10;87.30
15844;DHT22;50807;52.436;13.346;2023-03-12T01:02:36;5.20;87.40
15844;DHT22;50807;52.436;13.346;2023-03-12T01:03:09;5.10;87.40
15844;DHT22;50807;52.436;13.346;2023-03-12T01:03:40;5.20;87.40
15844;DHT22;50807;52.436;13.346;2023-03-12T01:04:11;5.20;87.40
15844;DHT22;50807;52.436;13.346;2023-03-12T01:04:44;5.10;87.40
15844;DHT22;50807;52.436;13.346;2023-03-12T01:05:15;5.20;87.30
15844;DHT22;50807;52.436;13.346;2023-03-12T01:05:46;5.10;87.40
15844;DHT22;50807;52.436;13.346;2023-03-12T01:06:23;5.10;87.40
15844;DHT22;50807;52.436;13.346;2023-03-12T01:06:55;5.20;87.50
15844;DHT22;50807;52.436;13.346;2023-03-12T01:07:26;5.20;87.50
15844;DHT22;50807;52.436;13.346;2023-03-12T01:07:57;5.20;87.60
15844;DHT22;50807;52.436;13.346;2023-03-12T01:08:29;5.10;87.50
15844;DHT22;50807;52.436;13.346;2023-03-12T01:09:01;5.10;87.50
15844;DHT22;50807;52.436;13.346;2023-03-12T01:09:34;5.20;87.60
15844;DHT22;50807;52.436;13.346;2023-03-12T01:10:06;5.20;87.60
15844;DHT22;50807;52.436;13.346;2023-03-12T01:10:40;5.20;87.80
15844;DHT22;50807;52.436;13.346;2023-03-12T01:11:13;5.20;87.70
15844;DHT22;50807;52.436;13.346;2023-03-12T01:11:45;5.20;87.80
15844;DHT22;50807;52.436;13.346;2023-03-12T01:12:15;5.20;87.80
15844;DHT22;50807;52.436;13.346;2023-03-12T01:12:47;5.20;87.80
15844;DHT22;50807;52.436;13.346;2023-03-12T01:13:18;5.20;87.80
15844;DHT22;50807;52.436;13.346;2023-03-12T01:13:49;5.20;87.80
15844;DHT22;50807;52.436;13.346;2023-03-12T01:14:21;5.20;87.80
15844;DHT22;50807;52.436;13.346;2023-03-12T01:14:53;5.20;87.80
15844;DHT22;50807;52.436;13.346;2023-03-12T01:15:24;5.20;88.60
15844;DHT22;50807;52.436;13.346;2023-03-12T01:15:56;5.20;88.00
15844;DHT22;50807;52.436;13.346;2023-03-12T01:16:28;5.30;88.00
15844;DHT22;50807;52.436;13.346;2023-03-12T01:17:00;5.30;88.00
15844;DHT22;50807;52.436;13.346;2023-03-12T01:17:32;5.30;88.00
15844;DHT22;50807;52.436;13.346;2023-03-12T01:18:03;5.30;88.00
15844;DHT22;50807;52.436;13.346;2023-03-12T01:18:34;5.30;88.00
15844;DHT22;50807;52.436;13.346;2023-03-12T01:19:05;5.30;87.90
15844;DHT22;50807;52.436;13.346;2023-03-12T01:19:36;5.30;88.00
15844;DHT22;50807;52.436;13.346;2023-03-12T01:20:09;5.40;88.10
15844;DHT22;50807;52.436;13.346;2023-03-12T01:20:40;5.40;88.10
15844;DHT22;50807;52.436;13.346;2023-03-12T01:21:11;5.40;88.10
15844;DHT22;50807;52.436;13.346;2023-03-12T01:21:43;5.40;88.10
15844;DHT22;50807;52.436;13.346;2023-03-12T01:22:15;5.40;88.10
15844;DHT22;50807;52.436;13.346;2023-03-12T01:22:46;5.40;88.10
15844;DHT22;50807;52.436;13.346;2023-03-12T01:23:18;5.40;88.10
15844;DHT22;50807;52.436;13.346;2023-03-12T01:23:49;5.50;88.10
15844;DHT22;50807;52.436;13.346;2023-03-12T01:24:19;5.50;88.10
15844;DHT22;50807;52.436;13.346;2023-03-12T01:24:51;5.50;88.10
15844;DHT22;50807;52.436;13.346;2023-03-12T01:25:22;5.50;88.10
15844;DHT22;50807;52.436;13.346;2023-03-12T01:25:53;5.50;88.10
15844;DHT22;50807;52.436;13.346;2023-03-12T01:26:24;5.50;88.10
15844;DHT22;50807;52.436;13.346;2023-03-12T01:26:56;5.60;88.10
15844;DHT22;50807;52.436;13.346;2023-03-12T01:27:27;5.50;88.00
15844;DHT22;50807;52.436;13.346;2023-03-12T01:27:59;5.60;88.10
15844;DHT22;50807;52.436;13.346;2023-03-12T01:28:29;5.60;88.00
15844;DHT22;50807;52.436;13.346;2023-03-12T01:29:00;5.60;88.00
15844;DHT22;50807;52.436;13.346;2023-03-12T01:29:32;5.60;88.00
15844;DHT22;50807;52.436;13.346;2023-03-12T01:30:03;5.60;87.90
15844;DHT22;50807;52.436;13.346;2023-03-12T01:30:35;5.60;87.90
15844;DHT22;50807;52.436;13.346;2023-03-12T01:31:07;5.70;87.80
15844;DHT22;50807;52.436;13.346;2023-03-12T01:31:38;5.60;87.80
15844;DHT22;50807;52.436;13.346;2023-03-12T01:32:09;5.70;87.70
15844;DHT22;50807;52.436;13.346;2023-03-12T01:32:41;5.70;87.70
15844;DHT22;50807;52.436;13.346;2023-03-12T01:33:11;5.70;87.60
15844;DHT22;50807;52.436;13.346;2023-03-12T01:33:44;5.70;87.60
15844;DHT22;50807;52.436;13.346;2023-03-12T01:34:15;5.70;87.60
15844;DHT22;50807;52.436;13.346;2023-03-12T01:34:46;5.70;87.60
15844;DHT22;50807;52.436;13.346;2023-03-12T01:35:17;5.70;87.50
15844;DHT22;50807;52.436;13.346;2023-03-12T01:35:49;5.70;87.60
15844;DHT22;50807;52.436;13.346;2023-03-12T01:36:22;5.70;87.50
15844;DHT22;50807;52.436;13.346;2023-03-12T01:36:54;5.70;87.50
15844;DHT22;50807;52.436;13.346;2023-03-12T01:37:28;5.70;87.40
15844;DHT22;50807;52.436;13.346;2023-03-12T01:37:58;5.70;87.30
15844;DHT22;50807;52.436;13.346;2023-03-12T01:38:29;5.70;87.30
15844;DHT22;50807;52.436;13.346;2023-03-12T01:39:01;5.70;87.30
15844;DHT22;50807;52.436;13.346;2023-03-12T01:39:33;5.70;87.30
15844;DHT22;50807;52.436;13.346;2023-03-12T01:40:05;5.70;87.30
15844;DHT22;50807;52.436;13.346;2023-03-12T01:40:38;5.70;87.30
15844;DHT22;50807;52.436;13.346;2023-03-12T01:41:09;5.70;87.30
15844;DHT22;50807;52.436;13.346;2023-03-12T01:41:40;5.70;87.20
15844;DHT22;50807;52.436;13.346;2023-03-12T01:42:11;5.70;87.20
15844;DHT22;50807;52.436;13.346;2023-03-12T01:42:43;5.70;87.20
15844;DHT22;50807;52.436;13.346;2023-03-12T01:43:28;5.70;87.30
15844;DHT22;50807;52.436;13.346;2023-03-12T01:44:01;5.70;87.30
15844;DHT22;50807;52.436;13.346;2023-03-12T01:44:52;5.70;87.30
15844;DHT22;50807;52.436;13.346;2023-03-12T01:45:56;5.70;87.30
15844;DHT22;50807;52.436;13.346;2023-03-12T01:46:34;5.70;87.30
15844;DHT22;50807;52.436;13.346;2023-03-12T01:47:07;5.70;87.10
15844;DHT22;50807;52.436;13.346;2023-03-12T01:47:41;5.70;87.00
15844;DHT22;50807;52.436;13.346;2023-03-12T01:48:11;5.70;86.90
15844;DHT22;50807;52.436;13.346;2023-03-12T01:48:46;5.70;87.00
15844;DHT22;50807;52.436;13.346;2023-03-12T01:49:23;5.70;87.10
15844;DHT22;50807;52.436;13.346;2023-03-12T01:49:57;5.70;87.10
15844;DHT22;50807;52.436;13.346;2023-03-12T01:50:30;5.70;87.10
15844;DHT22;50807;52.436;13.346;2023-03-12T01:51:01;5.70;87.20
15844;DHT22;50807;52.436;13.346;2023-03-12T01:51:35;5.70;87.20
15844;DHT22;50807;52.436;13.346;2023-03-12T01:52:12;5.70;87.30
15844;DHT22;50807;52.436;13.346;2023-03-12T01:52:45;5.70;87.30
15844;DHT22;50807;52.436;13.346;2023-03-12T01:53:16;5.70;87.30
15844;DHT22;50807;52.436;13.346;2023-03-12T01:53:50;5.70;87.30
15844;DHT22;50807;52.436;13.346;2023-03-12T01:54:28;5.70;87.30
15844;DHT22;50807;52.436;13.346;2023-03-12T01:55:06;5.70;87.40
15844;DHT22;50807;52.436;13.346;2023-03-12T01:55:39;5.70;87.40
15844;DHT22;50807;52.436;13.346;2023-03-12T01:56:12;5.70;87.30
15844;DHT22;50807;52.436;13.346;2023-03-12T01:56:46;5.70;87.30
15844;DHT22;50807;52.436;13.346;2023-03-12T01:57:22;5.70;87.30
15844;DHT22;50807;52.436;13.346;2023-03-12T01:57:57;5.70;87.40
15844;DHT22;50807;52.436;13.346;2023-03-12T01:58:32;5.70;87.30
15844;DHT22;50807;52.436;13.346;2023-03-12T01:59:09;5.70;87.30
15844;DHT22;50807;52.436;13.346;2023-03-12T01:59:47;5.70;87.40
15844;DHT22;50807;52.436;13.346;2023-03-12T02:00:24;5.70;87.30
15844;DHT22;50807;52.436;13.346;2023-03-12T02:00:56;5.70;87.30
15844;DHT22;50807;52.436;13.346;2023-03-12T02:01:28;5.80;87.40
15844;DHT22;50807;52.436;13.346;2023-03-12T02:02:01;5.70;87.30
15844;DHT22;50807;52.436;13.346;2023-03-12T02:02:33;5.70;87.40
15844;DHT22;50807;52.436;13.346;2023-03-12T02:03:07;5.70;87.30
15844;DHT22;50807;52.436;13.346;2023-03-12T02:03:40;5.70;87.30
15844;DHT22;50807;52.436;13.346;2023-03-12T02:04:11;5.70;87.30
15844;DHT22;50807;52.436;13.346;2023-03-12T02:04:46;5.70;87.30
15844;DHT22;50807;52.436;13.346;2023-03-12T02:05:23;5.70;87.30
15844;DHT22;50807;52.436;13.346;2023-03-12T02:06:01;5.70;87.40
15844;DHT22;50807;52.436;13.346;2023-03-12T02:06:38;5.80;87.50
15844;DHT22;50807;52.436;13.346;2023-03-12T02:07:14;5.80;87.50
15844;DHT22;50807;52.436;13.346;2023-03-12T02:07:48;5.80;87.40
15844;DHT22;50807;52.436;13.346;2023-03-12T02:08:19;5.80;87.40
15844;DHT22;50807;52.436;13.346;2023-03-12T02:08:53;5.80;87.40
15844;DHT22;50807;52.436;13.346;2023-03-12T02:09:25;5.80;87.50
15844;DHT22;50807;52.436;13.346;2023-03-12T02:09:56;5.80;87.40
15844;DHT22;50807;52.436;13.346;2023-03-12T02:10:27;5.80;87.40
15844;DHT22;50807;52.436;13.346;2023-03-12T02:10:59;5.80;87.50
15844;DHT22;50807;52.436;13.346;2023-03-12T02:11:30;5.80;87.50
15844;DHT22;50807;52.436;13.346;2023-03-12T02:12:01;5.80;87.50
15844;DHT22;50807;52.436;13.346;2023-03-12T02:12:33;5.80;87.60
15844;DHT22;50807;52.436;13.346;2023-03-12T02:13:04;5.80;87.60
15844;DHT22;50807;52.436;13.346;2023-03-12T02:13:35;5.80;87.60
15844;DHT22;50807;52.436;13.346;2023-03-12T02:14:07;5.80;87.60
15844;DHT22;50807;52.436;13.346;2023-03-12T02:14:38;5.80;87.60
15844;DHT22;50807;52.436;13.346;2023-03-12T02:15:10;5.80;87.60
15844;DHT22;50807;52.436;13.346;2023-03-12T02:15:41;5.80;87.60
15844;DHT22;50807;52.436;13.346;2023-03-12T02:16:14;5.90;87.70
15844;DHT22;50807;52.436;13.346;2023-03-12T02:16:45;5.90;87.60
15844;DHT22;50807;52.436;13.346;2023-03-12T02:17:16;5.90;87.70
15844;DHT22;50807;52.436;13.346;2023-03-12T02:17:48;5.90;87.70
15844;DHT22;50807;52.436;13.346;2023-03-12T02:18:19;5.90;87.70
15844;DHT22;50807;52.436;13.346;2023-03-12T02:18:52;5.90;87.70
15844;DHT22;50807;52.436;13.346;2023-03-12T02:19:32;5.90;87.70
15844;DHT22;50807;52.436;13.346;2023-03-12T02:20:14;5.90;87.70
15844;DHT22;50807;52.436;13.346;2023-03-12T02:20:55;5.90;87.70
15844;DHT22;50807;52.436;13.346;2023-03-12T02:21:32;6.00;87.70
15844;DHT22;50807;52.436;13.346;2023-03-12T02:22:04;6.00;87.70
15844;DHT22;50807;52.436;13.346;2023-03-12T02:22:36;6.00;87.50
15844;DHT22;50807;52.436;13.346;2023-03-12T02:23:16;6.00;87.60
15844;DHT22;50807;52.436;13.346;2023-03-12T02:24:00;6.00;87.60
15844;DHT22;50807;52.436;13.346;2023-03-12T02:24:41;6.10;87.60
15844;DHT22;50807;52.436;13.346;2023-03-12T02:25:27;6.10;87.50
15844;DHT22;50807;52.436;13.346;2023-03-12T02:26:01;6.10;87.50
15844;DHT22;50807;52.436;13.346;2023-03-12T02:26:37;6.10;87.40
15844;DHT22;50807;52.436;13.346;2023-03-12T02:27:09;6.10;87.30
15844;DHT22;50807;52.436;13.346;2023-03-12T02:27:41;6.10;87.30
15844;DHT22;50807;52.436;13.346;2023-03-12T02:28:15;6.10;87.20
15844;DHT22;50807;52.436;13.346;2023-03-12T02:28:49;6.10;87.30
15844;DHT22;50807;52.436;13.346;2023-03-12T02:29:21;6.10;87.30
15844;DHT22;50807;52.436;13.346;2023-03-12T02:29:54;6.10;87.20
15844;DHT22;50807;52.436;13.346;2023-03-12T02:30:27;6.10;87.20
15844;DHT22;50807;52.436;13.346;2023-03-12T02:31:02;6.10;87.90
15844;DHT22;50807;52.436;13.346;2023-03-12T02:31:40;6.10;87.20
15844;DHT22;50807;52.436;13.346;2023-03-12T02:32:17;6.20;87.30
15844;DHT22;50807;52.436;13.346;2023-03-12T02:32:53;6.20;87.30
15844;DHT22;50807;52.436;13.346;2023-03-12T02:33:25;6.20;87.20
15844;DHT22;50807;52.436;13.346;2023-03-12T02:33:57;6.20;87.20
15844;DHT22;50807;52.436;13.346;2023-03-12T02:34:29;6.20;87.20
15844;DHT22;50807;52.436;13.346;2023-03-12T02:35:02;6.20;87.10
15844;DHT22;50807;52.436;13.346;2023-03-12T02:35:35;6.20;87.20
15844;DHT22;50807;52.436;13.346;2023-03-12T02:36:07;6.20;87.20
15844;DHT22;50807;52.436;13.346;2023-03-12T02:36:39;6.20;87.20
15844;DHT22;50807;52.436;13.346;2023-03-12T02:37:10;6.20;87.10
15844;DHT22;50807;52.436;13.346;2023-03-12T02:37:47;6.20;87.10
15844;DHT22;50807;52.436;13.346;2023-03-12T02:38:32;6.20;87.10
15844;DHT22;50807;52.436;13.346;2023-03-12T02:39:10;6.20;87.10
15844;DHT22;50807;52.436;13.346;2023-03-12T02:39:43;6.20;87.00
15844;DHT22;50807;52.436;13.346;2023-03-12T02:40:26;6.30;87.10
15844;DHT22;50807;52.436;13.346;2023-03-12T02:41:03;6.30;87.00
15844;DHT22;50807;52.436;13.346;2023-03-12T02:41:41;6.30;87.00
15844;DHT22;50807;52.436;13.346;2023-03-12T02:42:17;6.30;86.90
15844;DHT22;50807;52.436;13.346;2023-03-12T02:42:48;6.30;86.90
15844;DHT22;50807;52.436;13.346;2023-03-12T02:43:20;6.30;87.50
15844;DHT22;50807;52.436;13.346;2023-03-12T02:43:58;6.30;86.90
15844;DHT22;50807;52.436;13.346;2023-03-12T02:44:32;6.30;86.90
15844;DHT22;50807;52.436;13.346;2023-03-12T02:45:06;6.30;86.80
15844;DHT22;50807;52.436;13.346;2023-03-12T02:45:38;6.30;86.80
15844;DHT22;50807;52.436;13.346;2023-03-12T02:46:09;6.30;86.80
15844;DHT22;50807;52.436;13.346;2023-03-12T02:46:43;6.30;86.80
15844;DHT22;50807;52.436;13.346;2023-03-12T02:47:15;6.30;86.90
15844;DHT22;50807;52.436;13.346;2023-03-12T02:47:46;6.30;86.80
15844;DHT22;50807;52.436;13.346;2023-03-12T02:48:18;6.30;86.90
15844;DHT22;50807;52.436;13.346;2023-03-12T02:48:49;6.30;86.90
15844;DHT22;50807;52.436;13.346;2023-03-12T02:49:23;6.30;86.90
15844;DHT22;50807;52.436;13.346;2023-03-12T02:49:56;6.30;86.90
15844;DHT22;50807;52.436;13.346;2023-03-12T02:50:27;6.30;86.90
15844;DHT22;50807;52.436;13.346;2023-03-12T02:50:58;6.30;86.90
15844;DHT22;50807;52.436;13.346;2023-03-12T02:51:30;6.30;86.90
15844;DHT22;50807;52.436;13.346;2023-03-12T02:52:02;6.30;86.90
15844;DHT22;50807;52.436;13.346;2023-03-12T02:52:33;6.30;86.90
15844;DHT22;50807;52.436;13.346;2023-03-12T02:53:07;6.30;86.90
15844;DHT22;50807;52.436;13.346;2023-03-12T02:53:38;6.30;86.90
15844;DHT22;50807;52.436;13.346;2023-03-12T02:54:10;6.30;86.90
15844;DHT22;50807;52.436;13.346;2023-03-12T02:54:42;6.30;86.90
15844;DHT22;50807;52.436;13.346;2023-03-12T02:55:13;6.30;86.80
15844;DHT22;50807;52.436;13.346;2023-03-12T02:55:45;6.30;86.80
15844;DHT22;50807;52.436;13.346;2023-03-12T02:56:17;6.30;86.80
15844;DHT22;50807;52.436;13.346;2023-03-12T02:56:48;6.30;86.80
15844;DHT22;50807;52.436;13.346;2023-03-12T02:57:21;6.30;86.90
15844;DHT22;50807;52.436;13.346;2023-03-12T02:57:51;6.30;86.80
15844;DHT22;50807;52.436;13.346;2023-03-12T02:58:22;6.30;86.80
15844;DHT22;50807;52.436;13.346;2023-03-12T02:58:53;6.30;86.90
15844;DHT22;50807;52.436;13.346;2023-03-12T02:59:25;6.30;86.80
15844;DHT22;50807;52.436;13.346;2023-03-12T02:59:56;6.40;86.90
15844;DHT22;50807;52.436;13.346;2023-03-12T03:00:27;6.30;86.70
15844;DHT22;50807;52.436;13.346;2023-03-12T03:01:01;6.40;86.80
15844;DHT22;50807;52.436;13.346;2023-03-12T03:01:32;6.30;86.70
15844;DHT22;50807;52.436;13.346;2023-03-12T03:02:03;6.40;86.80
15844;DHT22;50807;52.436;13.346;2023-03-12T03:02:36;6.40;86.70
15844;DHT22;50807;52.436;13.346;2023-03-12T03:03:07;6.40;86.80
15844;DHT22;50807;52.436;13.346;2023-03-12T03:03:38;6.40;86.70
15844;DHT22;50807;52.436;13.346;2023-03-12T03:04:09;6.40;86.80
15844;DHT22;50807;52.436;13.346;2023-03-12T03:04:41;6.40;86.80
15844;DHT22;50807;52.436;13.346;2023-03-12T03:05:12;6.40;86.80
15844;DHT22;50807;52.436;13.346;2023-03-12T03:05:43;6.40;86.80
15844;DHT22;50807;52.436;13.346;2023-03-12T03:06:15;6.40;86.80
15844;DHT22;50807;52.436;13.346;2023-03-12T03:06:46;6.40;86.70
15844;DHT22;50807;52.436;13.346;2023-03-12T03:07:17;6.40;86.80
15844;DHT22;50807;52.436;13.346;2023-03-12T03:07:49;6.40;86.70
15844;DHT22;50807;52.436;13.346;2023-03-12T03:08:20;6.40;86.70
15844;DHT22;50807;52.436;13.346;2023-03-12T03:08:51;6.40;86.70
15844;DHT22;50807;52.436;13.346;2023-03-12T03:09:24;6.40;86.60
15844;DHT22;50807;52.436;13.346;2023-03-12T03:09:56;6.40;86.70
15844;DHT22;50807;52.436;13.346;2023-03-12T03:10:33;6.40;86.60
15844;DHT22;50807;52.436;13.346;2023-03-12T03:11:05;6.40;86.60
15844;DHT22;50807;52.436;13.346;2023-03-12T03:11:38;6.40;86.50
15844;DHT22;50807;52.436;13.346;2023-03-12T03:12:08;6.40;86.50
15844;DHT22;50807;52.436;13.346;2023-03-12T03:12:39;6.40;86.50
15844;DHT22;50807;52.436;13.346;2023-03-12T03:13:11;6.40;86.50
15844;DHT22;50807;52.436;13.346;2023-03-12T03:13:43;6.40;86.50
15844;DHT22;50807;52.436;13.346;2023-03-12T03:14:14;6.40;86.50
15844;DHT22;50807;52.436;13.346;2023-03-12T03:14:44;6.30;86.30
15844;DHT22;50807;52.436;13.346;2023-03-12T03:15:16;6.30;86.20
15844;DHT22;50807;52.436;13.346;2023-03-12T03:15:47;6.30;86.30
15844;DHT22;50807;52.436;13.346;2023-03-12T03:16:18;6.30;86.30
15844;DHT22;50807;52.436;13.346;2023-03-12T03:16:50;6.30;86.30
15844;DHT22;50807;52.436;13.346;2023-03-12T03:17:21;6.30;86.90
15844;DHT22;50807;52.436;13.346;2023-03-12T03:17:53;6.30;86.20
15844;DHT22;50807;52.436;13.346;2023-03-12T03:18:25;6.30;86.10
15844;DHT22;50807;52.436;13.346;2023-03-12T03:18:56;6.30;86.10
15844;DHT22;50807;52.436;13.346;2023-03-12T03:19:26;6.30;86.10
15844;DHT22;50807;52.436;13.346;2023-03-12T03:19:58;6.30;86.10
15844;DHT22;50807;52.436;13.346;2023-03-12T03:20:30;6.20;86.00
15844;DHT22;50807;52.436;13.346;2023-03-12T03:21:03;6.20;86.10
15844;DHT22;50807;52.436;13.346;2023-03-12T03:21:35;6.20;86.10
15844;DHT22;50807;52.436;13.346;2023-03-12T03:22:07;6.20;86.10
15844;DHT22;50807;52.436;13.346;2023-03-12T03:22:38;6.20;86.10
15844;DHT22;50807;52.436;13.346;2023-03-12T03:23:09;6.20;86.10
15844;DHT22;50807;52.436;13.346;2023-03-12T03:23:42;6.10;86.10
15844;DHT22;50807;52.436;13.346;2023-03-12T03:24:14;6.10;86.10
15844;DHT22;50807;52.436;13.346;2023-03-12T03:24:46;6.10;86.00
15844;DHT22;50807;52.436;13.346;2023-03-12T03:25:18;6.10;86.20
15844;DHT22;50807;52.436;13.346;2023-03-12T03:25:52;6.10;86.20